createdAt,value
2018-01-01T00:00:06.120Z,84.99
2018-01-01T00:00:46.936Z,85.56
2018-01-01T00:01:27.875Z,86.18
2018-01-01T00:02:08.557Z,85.85
2018-01-01T00:02:49.118Z,86.8
2018-01-01T00:03:29.813Z,84.89
2018-01-01T00:04:10.316Z,85.71
2018-01-01T00:04:50.788Z,86.28
2018-01-01T00:05:33.532Z,87.27
2018-01-01T00:06:15.077Z,86.7
2018-01-01T00:06:55.780Z,85.85
2018-01-01T00:07:36.378Z,85.94
2018-01-01T00:08:17.204Z,85.28
2018-01-01T00:08:57.736Z,85.47
2018-01-01T00:09:38.497Z,84.8
2018-01-01T00:10:19.147Z,85.08
2018-01-01T00:10:59.867Z,84.89
2018-01-01T00:11:40.513Z,85.18
2018-01-01T00:12:21.100Z,83.85
2018-01-01T00:13:02.481Z,84.61
2018-01-01T00:13:42.928Z,84.04
2018-01-01T00:14:23.646Z,85.28
2018-01-01T00:15:04.775Z,84.89
2018-01-01T00:15:45.286Z,84.42
2018-01-01T00:16:25.667Z,83.9
2018-01-01T00:17:06.537Z,84.99
2018-01-01T00:17:46.800Z,84.04
2018-01-01T00:18:27.547Z,85.08
2018-01-01T00:19:08.582Z,84.89
2018-01-01T00:19:49.083Z,84.8
2018-01-01T00:20:29.615Z,84.8
2018-01-01T00:21:10.110Z,83.65
2018-01-01T00:21:51.074Z,84.04
2018-01-01T00:22:31.624Z,84.52
2018-01-01T00:23:12.265Z,83.75
2018-01-01T00:23:52.791Z,84.13
2018-01-01T00:24:33.402Z,83.65
2018-01-01T00:25:13.797Z,83.47
2018-01-01T00:27:30.187Z,83.09
2018-01-01T00:28:09.543Z,82.42
2018-01-01T00:28:50.054Z,83.09
2018-01-01T00:29:30.470Z,81.85
2018-01-01T00:30:10.910Z,81.95
2018-01-01T00:30:51.454Z,81.85
2018-01-01T00:31:32.354Z,81.37
2018-01-01T00:32:12.972Z,81.95
2018-01-01T00:32:53.413Z,82.8
2018-01-01T00:33:33.834Z,81.95
2018-01-01T00:34:14.638Z,81.85
2018-01-01T00:34:55.372Z,82.9
2018-01-01T00:35:35.935Z,82.51
2018-01-01T00:36:16.369Z,83.09
2018-01-01T00:36:56.826Z,82.99
2018-01-01T00:37:37.337Z,82.14
2018-01-01T00:38:18.046Z,83.28
2018-01-01T00:38:58.398Z,82.42
2018-01-01T00:39:38.865Z,81.76
2018-01-01T00:40:19.524Z,81.76
2018-01-01T00:41:00.088Z,81.95
2018-01-01T00:41:40.523Z,82.99
2018-01-01T00:42:21.370Z,81.95
2018-01-01T00:43:01.799Z,81.56
2018-01-01T00:43:42.275Z,81.47
2018-01-01T00:44:22.898Z,80.61
2018-01-01T00:45:03.238Z,81.23
2018-01-01T00:45:43.760Z,80.9
2018-01-01T00:46:24.214Z,79.89
2018-01-01T00:47:04.809Z,79.99
2018-01-01T00:47:45.076Z,79.6
2018-01-01T00:48:25.957Z,79.99
2018-01-01T00:49:07.134Z,80.08
2018-01-01T00:49:47.724Z,80.75
2018-01-01T00:50:28.337Z,79.7
2018-01-01T00:51:09.445Z,79.03
2018-01-01T00:51:49.486Z,79.51
2018-01-01T00:52:30.074Z,79.22
2018-01-01T00:53:10.589Z,79.22
2018-01-01T00:53:51.055Z,79.99
2018-01-01T00:54:31.945Z,80.36
2018-01-01T00:55:12.964Z,80.36
2018-01-01T00:55:53.332Z,80.65
2018-01-01T00:56:33.755Z,80.18
2018-01-01T00:57:14.631Z,80.08
2018-01-01T00:57:55.270Z,79.99
2018-01-01T00:58:36.430Z,80.94
2018-01-01T00:59:17.247Z,80.27
2018-01-01T00:59:57.367Z,79.99
2018-01-01T01:00:38.778Z,80.71
2018-01-01T01:01:18.942Z,80.27
2018-01-01T01:01:59.421Z,80.08
2018-01-01T01:02:40.939Z,81.41
2018-01-01T01:03:21.222Z,81.32
2018-01-01T01:05:38.289Z,81.41
2018-01-01T01:06:21.901Z,81.41
2018-01-01T01:07:02.864Z,81.98
2018-01-01T01:07:43.107Z,81.51
2018-01-01T01:08:23.792Z,80.55
2018-01-01T01:09:04.083Z,81.56
2018-01-01T01:09:44.918Z,82.04
2018-01-01T01:10:25.501Z,82.99
2018-01-01T01:11:06.474Z,83.28
2018-01-01T01:11:47.849Z,83.37
2018-01-01T01:12:29.529Z,84.23
2018-01-01T01:13:10.223Z,83.85
2018-01-01T01:13:50.768Z,84.13
2018-01-01T01:14:31.396Z,83.65
2018-01-01T01:15:11.799Z,83.23
2018-01-01T01:15:52.442Z,83.62
2018-01-01T01:16:33.162Z,84.38
2018-01-01T01:17:13.641Z,85.61
2018-01-01T01:17:54.287Z,85.61
2018-01-01T01:18:34.696Z,85.24
2018-01-01T01:19:15.643Z,85.99
2018-01-01T01:19:55.628Z,86.76
2018-01-01T01:20:38.429Z,86.57
2018-01-01T01:21:18.709Z,85.99
2018-01-01T01:21:59.621Z,85.42
2018-01-01T01:22:40.357Z,85.52
2018-01-01T01:23:21.000Z,85.52
2018-01-01T01:24:02.098Z,85.52
2018-01-01T01:24:42.573Z,85.42
2018-01-01T01:25:23.448Z,85.61
2018-01-01T01:26:04.459Z,85.52
2018-01-01T01:26:45.368Z,85.42
2018-01-01T01:27:26.461Z,86.38
2018-01-01T01:28:06.930Z,85.99
2018-01-01T01:28:47.665Z,86.18
2018-01-01T01:29:28.329Z,85.04
2018-01-01T01:30:08.903Z,84.66
2018-01-01T01:30:49.561Z,84.95
2018-01-01T01:31:29.925Z,85.99
2018-01-01T01:32:11.159Z,86.66
2018-01-01T01:32:51.925Z,86.18
2018-01-01T01:33:32.354Z,86.28
2018-01-01T01:34:13.189Z,86.57
2018-01-01T01:34:53.352Z,85.9
2018-01-01T01:35:33.815Z,86.57
2018-01-01T01:36:14.662Z,86.76
2018-01-01T01:36:55.110Z,86.28
2018-01-01T01:37:35.761Z,86.76
2018-01-01T01:38:16.165Z,86.38
2018-01-01T01:38:57.865Z,85.71
2018-01-01T01:39:38.204Z,85.42
2018-01-01T01:40:19.243Z,86.28
2018-01-01T01:41:02.040Z,87.13
2018-01-01T01:41:42.689Z,85.9
2018-01-01T01:42:23.184Z,87.23
2018-01-01T01:43:06.053Z,86.57
2018-01-01T01:43:46.651Z,85.71
2018-01-01T01:44:27.541Z,85.04
2018-01-01T01:45:08.180Z,84.95
2018-01-01T01:45:48.804Z,85.52
2018-01-01T01:46:29.738Z,85.33
2018-01-01T01:47:10.411Z,83.9
2018-01-01T01:47:50.876Z,84.19
2018-01-01T01:48:31.859Z,83.62
2018-01-01T01:49:13.325Z,82.95
2018-01-01T01:49:53.806Z,82.99
2018-01-01T01:50:34.172Z,82.09
2018-01-01T01:51:14.833Z,81.52
2018-01-01T01:51:55.305Z,81.9
2018-01-01T01:52:35.783Z,82.04
2018-01-01T01:54:37.370Z,81.76
2018-01-01T01:56:38.520Z,81.47
2018-01-01T01:57:19.195Z,80.86
2018-01-01T01:57:59.548Z,80.95
2018-01-01T01:58:40.321Z,81.37
2018-01-01T01:59:20.763Z,80.04
2018-01-01T02:00:01.710Z,80.52
2018-01-01T02:00:42.153Z,80.52
2018-01-01T02:01:22.847Z,79.91
2018-01-01T02:03:42.356Z,80.71
2018-01-01T02:04:22.829Z,80.52
2018-01-01T02:05:04.081Z,81.14
2018-01-01T02:05:44.476Z,81.28
2018-01-01T02:06:26.035Z,79.66
2018-01-01T02:07:07.302Z,78.33
2018-01-01T02:07:47.664Z,78.42
2018-01-01T02:08:28.258Z,78.61
2018-01-01T02:09:09.008Z,78.99
2018-01-01T02:09:49.664Z,78.71
2018-01-01T02:10:29.909Z,78.23
2018-01-01T02:11:10.480Z,79.09
2018-01-01T02:11:51.156Z,77.66
2018-01-01T02:12:31.511Z,76.81
2018-01-01T02:13:11.976Z,77.28
2018-01-01T02:13:52.304Z,77.37
2018-01-01T02:14:32.829Z,77
2018-01-01T02:15:13.317Z,77.09
2018-01-01T02:15:53.804Z,77.47
2018-01-01T02:16:34.523Z,77.28
2018-01-01T02:17:15.043Z,76.42
2018-01-01T02:17:55.937Z,76.23
2018-01-01T02:18:36.450Z,77.09
2018-01-01T02:19:16.929Z,77
2018-01-01T02:19:57.286Z,76.04
2018-01-01T02:20:38.271Z,75.76
2018-01-01T02:21:18.641Z,75.85
2018-01-01T02:21:59.046Z,76.52
2018-01-01T02:22:39.594Z,76.61
2018-01-01T02:23:20.532Z,75.38
2018-01-01T02:24:01.280Z,75.38
2018-01-01T02:24:42.107Z,75.47
2018-01-01T02:25:22.511Z,74.99
2018-01-01T02:26:03.338Z,74.62
2018-01-01T02:26:44.023Z,74.14
2018-01-01T02:27:24.444Z,75.19
2018-01-01T02:28:05.140Z,74.71
2018-01-01T02:28:45.542Z,74.8
2018-01-01T02:29:26.643Z,74.33
2018-01-01T02:30:07.400Z,73.57
2018-01-01T02:30:48.070Z,74.75
2018-01-01T02:31:28.333Z,75.13
2018-01-01T02:32:09.284Z,73.22
2018-01-01T02:32:49.450Z,72.65
2018-01-01T02:33:30.229Z,72.81
2018-01-01T02:34:10.648Z,73.13
2018-01-01T02:34:51.472Z,73.22
2018-01-01T02:35:32.251Z,73.03
2018-01-01T02:36:12.649Z,73.03
2018-01-01T02:36:53.421Z,73.22
2018-01-01T02:37:33.741Z,73.41
2018-01-01T02:38:14.129Z,72.94
2018-01-01T02:38:54.648Z,72.75
2018-01-01T02:39:35.077Z,72.94
2018-01-01T02:40:15.655Z,73.13
2018-01-01T02:40:56.041Z,73.51
2018-01-01T02:41:37.070Z,73.13
2018-01-01T02:42:17.144Z,73.89
2018-01-01T02:42:57.778Z,73.41
2018-01-01T02:43:38.350Z,73.13
2018-01-01T02:44:18.973Z,74.37
2018-01-01T02:44:59.410Z,72.65
2018-01-01T02:45:39.924Z,73.22
2018-01-01T02:46:20.466Z,73.22
2018-01-01T02:47:00.969Z,72.85
2018-01-01T02:47:41.408Z,73.22
2018-01-01T02:48:22.005Z,73.13
2018-01-01T02:49:02.816Z,73.41
2018-01-01T02:49:43.646Z,73.51
2018-01-01T02:50:23.899Z,73.13
2018-01-01T02:51:04.257Z,72.56
2018-01-01T02:51:44.730Z,72.94
2018-01-01T02:52:25.230Z,73.51
2018-01-01T02:53:05.977Z,72.65
2018-01-01T02:53:46.479Z,72.94
2018-01-01T02:54:27.040Z,73.32
2018-01-01T02:55:07.464Z,73.41
2018-01-01T02:55:48.269Z,73.61
2018-01-01T02:56:28.722Z,73.13
2018-01-01T02:57:09.431Z,73.7
2018-01-01T02:57:49.845Z,73.1
2018-01-01T02:58:30.305Z,73.57
2018-01-01T02:59:10.750Z,73.8
2018-01-01T02:59:51.401Z,74.84
2018-01-01T03:00:31.771Z,74.37
2018-01-01T03:01:12.190Z,73.22
2018-01-01T03:01:53.202Z,73.8
2018-01-01T03:02:33.331Z,73.89
2018-01-01T03:03:14.410Z,73.51
2018-01-01T03:03:54.874Z,73.51
2018-01-01T03:04:36.014Z,73.13
2018-01-01T03:05:16.412Z,73.03
2018-01-01T03:05:56.923Z,73.22
2018-01-01T03:06:37.299Z,72.46
2018-01-01T03:07:17.706Z,73.13
2018-01-01T03:07:58.151Z,73.41
2018-01-01T03:08:38.762Z,73.89
2018-01-01T03:09:19.051Z,73.61
2018-01-01T03:09:59.682Z,73.41
2018-01-01T03:10:39.940Z,73.41
2018-01-01T03:11:20.703Z,73.8
2018-01-01T03:12:01.284Z,73.41
2018-01-01T03:12:41.987Z,73.61
2018-01-01T03:13:22.380Z,73.03
2018-01-01T03:14:02.882Z,73.89
2018-01-01T03:14:43.539Z,73.51
2018-01-01T03:15:24.226Z,73.41
2018-01-01T03:16:04.957Z,73.61
2018-01-01T03:16:45.575Z,73.7
2018-01-01T03:17:25.968Z,72.94
2018-01-01T03:18:06.637Z,73.51
2018-01-01T03:18:47.049Z,72.75
2018-01-01T03:19:27.482Z,73.41
2018-01-01T03:20:08.050Z,73.51
2018-01-01T03:20:48.350Z,74.33
2018-01-01T03:21:29.660Z,74.14
2018-01-01T03:22:10.140Z,73.76
2018-01-01T03:22:50.605Z,74.37
2018-01-01T03:23:31.040Z,74.94
2018-01-01T03:24:11.597Z,74.94
2018-01-01T03:24:52.496Z,74.18
2018-01-01T03:25:33.883Z,73.61
2018-01-01T03:26:14.362Z,74.04
2018-01-01T03:26:54.892Z,74.46
2018-01-01T03:27:35.520Z,74.37
2018-01-01T03:28:15.974Z,74.56
2018-01-01T03:28:56.668Z,74.8
2018-01-01T03:29:37.324Z,74.18
2018-01-01T03:30:17.650Z,74.04
2018-01-01T03:30:57.997Z,74.75
2018-01-01T03:31:39.130Z,74.8
2018-01-01T03:32:19.655Z,74.33
2018-01-01T03:33:00.051Z,74.9
2018-01-01T03:33:40.465Z,74.9
2018-01-01T03:34:20.916Z,74.84
2018-01-01T03:35:01.355Z,74.65
2018-01-01T03:35:41.977Z,74.27
2018-01-01T03:36:22.535Z,73.85
2018-01-01T03:37:03.066Z,74.14
2018-01-01T03:37:43.742Z,75.23
2018-01-01T03:38:24.805Z,75.19
2018-01-01T03:39:05.431Z,74.56
2018-01-01T03:39:45.949Z,74.75
2018-01-01T03:40:26.624Z,74.08
2018-01-01T03:41:07.004Z,74.24
2018-01-01T03:41:48.012Z,74.94
2018-01-01T03:42:28.571Z,75.13
2018-01-01T03:43:09.383Z,74.18
2018-01-01T03:43:50.541Z,74.94
2018-01-01T03:44:30.381Z,74.94
2018-01-01T03:45:10.804Z,74.94
2018-01-01T03:45:51.252Z,74.84
2018-01-01T03:47:55.190Z,74.94
2018-01-01T03:48:35.812Z,74.18
2018-01-01T03:49:16.183Z,74.37
2018-01-01T03:49:56.629Z,74.56
2018-01-01T03:50:37.022Z,74.8
2018-01-01T03:51:17.602Z,74.8
2018-01-01T03:51:58.493Z,75.09
2018-01-01T03:52:39.170Z,74.71
2018-01-01T03:53:19.743Z,74.8
2018-01-01T03:54:00.218Z,74.8
2018-01-01T03:54:41.365Z,74.62
2018-01-01T03:55:21.577Z,75.47
2018-01-01T03:56:04.101Z,75.85
2018-01-01T03:56:44.542Z,76.14
2018-01-01T03:57:25.324Z,76.23
2018-01-01T03:58:06.083Z,75.95
2018-01-01T03:58:47.389Z,76.33
2018-01-01T03:59:28.218Z,76.04
2018-01-01T04:00:08.404Z,77.09
2018-01-01T04:00:49.382Z,76.42
2018-01-01T04:01:29.596Z,76.33
2018-01-01T04:02:10.262Z,76.52
2018-01-01T04:02:51.305Z,76.81
2018-01-01T04:03:31.621Z,76.33
2018-01-01T04:45:21.521Z,81.14
2018-01-01T04:46:14.464Z,81.43
2018-01-01T04:46:59.820Z,80.76
2018-01-01T04:47:43.019Z,81.67
2018-01-01T04:48:27.647Z,81.67
2018-01-01T04:49:10.733Z,82.34
2018-01-01T04:49:53.481Z,80.95
2018-01-01T04:50:33.761Z,80.91
2018-01-01T04:51:14.322Z,81.48
2018-01-01T04:52:00.677Z,81.86
2018-01-01T04:52:44.594Z,81.1
2018-01-01T04:53:24.933Z,81.05
2018-01-01T04:54:06.664Z,80.38
2018-01-01T04:54:49.481Z,81.14
2018-01-01T04:55:32.565Z,80.76
2018-01-01T04:56:15.977Z,80.76
2018-01-01T04:56:56.797Z,79.91
2018-01-01T04:57:36.734Z,80.47
2018-01-01T04:58:17.339Z,80.47
2018-01-01T04:59:01.535Z,79.72
2018-01-01T05:01:16.748Z,78.38
2018-01-01T05:01:57.787Z,78.77
2018-01-01T05:02:38.210Z,78.57
2018-01-01T05:03:18.777Z,78.48
2018-01-01T05:03:59.343Z,78.1
2018-01-01T05:04:39.876Z,77.81
2018-01-01T05:05:20.440Z,78.48
2018-01-01T05:06:01.581Z,78.48
2018-01-01T05:06:41.905Z,77.91
2018-01-01T05:07:22.403Z,77.72
2018-01-01T05:08:03.053Z,77.91
2018-01-01T05:08:43.761Z,77.15
2018-01-01T05:09:24.161Z,77.81
2018-01-01T05:10:05.048Z,78
2018-01-01T05:10:45.595Z,77.05
2018-01-01T05:11:25.967Z,76.29
2018-01-01T05:12:06.751Z,76.39
2018-01-01T05:12:47.359Z,76.67
2018-01-01T05:13:27.788Z,77.05
2018-01-01T05:14:08.566Z,77.15
2018-01-01T05:14:49.058Z,76.86
2018-01-01T05:15:29.437Z,76.96
2018-01-01T05:16:10.382Z,77.43
2018-01-01T05:16:51.232Z,77.15
2018-01-01T05:17:32.072Z,76.86
2018-01-01T05:18:12.437Z,76.96
2018-01-01T05:18:52.953Z,76.1
2018-01-01T05:19:33.577Z,75.81
2018-01-01T05:20:14.252Z,76.76
2018-01-01T05:20:55.016Z,76.29
2018-01-01T05:21:35.688Z,76.01
2018-01-01T05:22:16.153Z,76.48
2018-01-01T05:22:57.265Z,76.57
2018-01-01T05:23:37.503Z,77.05
2018-01-01T05:24:18.134Z,76.57
2018-01-01T05:24:58.577Z,76.57
2018-01-01T05:25:39.028Z,76.57
2018-01-01T05:26:20.044Z,76.96
2018-01-01T05:27:00.296Z,77.05
2018-01-01T05:27:42.016Z,76.39
2018-01-01T05:28:22.130Z,75.72
2018-01-01T05:29:03.000Z,76.2
2018-01-01T05:29:43.460Z,77.24
2018-01-01T05:30:23.988Z,76.39
2018-01-01T05:31:05.076Z,75.43
2018-01-01T05:31:45.374Z,76.2
2018-01-01T05:32:26.116Z,76.57
2018-01-01T05:33:06.511Z,76.39
2018-01-01T05:33:46.841Z,77.05
2018-01-01T05:34:27.328Z,77.15
2018-01-01T05:35:07.988Z,77.62
2018-01-01T05:35:48.401Z,77.05
2018-01-01T05:36:28.922Z,77.34
2018-01-01T05:37:09.287Z,76.76
2018-01-01T05:37:49.871Z,76.67
2018-01-01T05:38:31.276Z,77.05
2018-01-01T05:39:12.045Z,77.05
2018-01-01T05:39:52.901Z,76.76
2018-01-01T05:40:33.461Z,77.05
2018-01-01T05:41:13.993Z,77.05
2018-01-01T05:41:54.254Z,76.96
2018-01-01T05:42:34.741Z,76.96
2018-01-01T05:43:15.530Z,77.53
2018-01-01T05:43:55.933Z,78
2018-01-01T05:44:37.117Z,77.62
2018-01-01T05:45:17.853Z,78
2018-01-01T05:45:58.192Z,77.91
2018-01-01T05:46:38.568Z,77.81
2018-01-01T05:47:19.615Z,77.62
2018-01-01T05:48:00.572Z,77.62
2018-01-01T05:48:41.124Z,78.48
2018-01-01T05:49:21.796Z,78.86
2018-01-01T05:50:02.126Z,78.67
2018-01-01T05:50:43.059Z,78.67
2018-01-01T05:51:23.441Z,79.14
2018-01-01T05:52:03.887Z,78.77
2018-01-01T05:52:44.375Z,78.38
2018-01-01T05:53:24.677Z,78.48
2018-01-01T05:54:05.210Z,78.1
2018-01-01T05:54:46.227Z,78.1
2018-01-01T05:55:26.614Z,78.57
2018-01-01T05:56:07.569Z,78.48
2018-01-01T05:56:47.866Z,78.77
2018-01-01T05:57:28.700Z,78.38
2018-01-01T05:58:09.096Z,78.48
2018-01-01T05:58:49.760Z,79.14
2018-01-01T05:59:30.184Z,78.67
2018-01-01T06:00:10.598Z,78.38
2018-01-01T06:00:51.080Z,78.67
2018-01-01T06:01:33.582Z,78.77
2018-01-01T06:02:14.157Z,78.48
2018-01-01T06:02:54.789Z,78.1
2018-01-01T06:03:35.124Z,78.38
2018-01-01T06:04:15.966Z,79.14
2018-01-01T06:04:56.729Z,79.43
2018-01-01T06:05:38.064Z,78.86
2018-01-01T06:06:18.195Z,79.05
2018-01-01T06:06:58.403Z,79.33
2018-01-01T06:07:38.802Z,78.96
2018-01-01T06:08:19.365Z,78.48
2018-01-01T06:09:00.038Z,78.86
2018-01-01T06:10:54.817Z,78.57
2018-01-01T06:11:34.654Z,78.57
2018-01-01T06:12:15.001Z,78.57
2018-01-01T06:12:55.441Z,77.91
2018-01-01T06:13:36.122Z,77.81
2018-01-01T06:14:16.711Z,77.72
2018-01-01T06:14:57.452Z,77.91
2018-01-01T06:15:38.044Z,77.43
2018-01-01T06:16:18.598Z,77.81
2018-01-01T06:16:58.989Z,77.24
2018-01-01T06:20:20.552Z,76.33
2018-01-01T06:21:00.513Z,76.33
2018-01-01T06:21:41.112Z,76.2
2018-01-01T06:22:21.751Z,76.2
2018-01-01T06:23:02.732Z,77.09
2018-01-01T06:23:43.648Z,77.19
2018-01-01T06:24:24.391Z,75.85
2018-01-01T06:25:05.895Z,76.14
2018-01-01T06:25:46.081Z,75.95
2018-01-01T06:26:27.162Z,76.04
2018-01-01T06:28:18.645Z,75.34
2018-01-01T06:28:58.760Z,76.1
2018-01-01T06:29:39.154Z,75.62
2018-01-01T06:30:19.721Z,76.01
2018-01-01T06:31:00.083Z,76.96
2018-01-01T06:31:41.148Z,76.01
2018-01-01T06:32:21.625Z,75.95
2018-01-01T06:33:02.515Z,76.04
2018-01-01T06:33:43.045Z,76.04
2018-01-01T06:34:23.656Z,76.14
2018-01-01T06:35:03.970Z,75.62
2018-01-01T06:35:44.805Z,75.91
2018-01-01T06:36:25.767Z,75.91
2018-01-01T06:37:06.867Z,76.1
2018-01-01T06:37:49.928Z,76.2
2018-01-01T06:38:30.658Z,76.01
2018-01-01T06:40:29.669Z,76.2
2018-01-01T06:41:13.118Z,76.48
2018-01-01T06:41:54.083Z,76.48
2018-01-01T06:42:35.077Z,76.57
2018-01-01T06:43:15.726Z,77.05
2018-01-01T06:43:56.203Z,75.72
2018-01-01T06:44:36.694Z,76.23
2018-01-01T06:45:17.138Z,76.61
2018-01-01T06:45:59.188Z,76.14
2018-01-01T06:46:39.736Z,75.47
2018-01-01T06:47:20.391Z,76.23
2018-01-01T06:48:00.780Z,76.04
2018-01-01T06:48:41.179Z,75.85
2018-01-01T06:49:21.665Z,76.14
2018-01-01T06:50:02.035Z,75.95
2018-01-01T06:50:42.815Z,74.99
2018-01-01T06:51:24.279Z,74.9
2018-01-01T06:52:04.534Z,75.28
2018-01-01T06:52:45.634Z,75.09
2018-01-01T06:53:26.331Z,76.14
2018-01-01T06:54:07.358Z,75.85
2018-01-01T06:54:48.978Z,75.85
2018-01-01T06:55:29.363Z,75.76
2018-01-01T06:56:10.123Z,75.47
2018-01-01T06:56:50.932Z,75.38
2018-01-01T06:57:31.806Z,75.47
2018-01-01T06:58:13.069Z,75.85
2018-01-01T06:58:53.494Z,75.47
2018-01-01T06:59:34.632Z,76.33
2018-01-01T07:00:15.409Z,75.76
2018-01-01T07:00:55.961Z,75.28
2018-01-01T07:01:37.148Z,75.47
2018-01-01T07:02:18.241Z,76.01
2018-01-01T07:02:58.821Z,76.48
2018-01-01T07:03:39.228Z,75.85
2018-01-01T07:04:20.166Z,75.91
2018-01-01T07:05:00.764Z,75.85
2018-01-01T07:05:41.662Z,75.95
2018-01-01T07:06:22.229Z,76.14
2018-01-01T07:07:03.144Z,75.34
2018-01-01T07:07:43.785Z,75.34
2018-01-01T07:08:24.275Z,76.04
2018-01-01T07:09:04.964Z,75.28
2018-01-01T07:09:45.452Z,75.47
2018-01-01T07:10:26.050Z,75.28
2018-01-01T07:11:06.482Z,75.95
2018-01-01T07:11:46.979Z,75.95
2018-01-01T07:12:28.168Z,76.04
2018-01-01T07:13:08.844Z,75.47
2018-01-01T07:13:49.289Z,74.9
2018-01-01T07:14:29.892Z,75.47
2018-01-01T07:15:10.405Z,74.9
2018-01-01T07:15:51.108Z,75.95
2018-01-01T07:16:31.872Z,74.9
2018-01-01T07:17:12.349Z,74.99
2018-01-01T07:17:53.017Z,74.99
2018-01-01T07:18:34.516Z,75.15
2018-01-01T07:19:15.417Z,74.96
2018-01-01T07:19:55.725Z,75.05
2018-01-01T07:20:36.154Z,75.24
2018-01-01T07:21:16.591Z,74.87
2018-01-01T07:21:57.038Z,75.15
2018-01-01T07:22:38.056Z,75.43
2018-01-01T07:23:18.451Z,75.43
2018-01-01T07:23:58.953Z,76.2
2018-01-01T07:24:39.845Z,74.87
2018-01-01T07:25:21.242Z,75.62
2018-01-01T07:26:01.900Z,75.43
2018-01-01T07:26:42.191Z,76.01
2018-01-01T07:27:22.693Z,75.43
2018-01-01T07:28:04.276Z,76.01
2018-01-01T07:28:43.696Z,76.01
2018-01-01T07:29:25.988Z,75.43
2018-01-01T07:30:05.926Z,74.48
2018-01-01T07:30:46.524Z,75.05
2018-01-01T07:31:27.551Z,75.72
2018-01-01T07:32:07.971Z,75.62
2018-01-01T07:32:48.854Z,75.34
2018-01-01T07:33:29.356Z,75.34
2018-01-01T07:34:10.260Z,75.43
2018-01-01T07:34:50.364Z,75.34
2018-01-01T07:35:31.404Z,75.91
2018-01-01T07:36:11.637Z,76.14
2018-01-01T07:36:52.808Z,75.09
2018-01-01T07:37:33.124Z,74.96
2018-01-01T07:38:13.583Z,74.87
2018-01-01T07:38:54.471Z,75.24
2018-01-01T07:39:35.198Z,75.24
2018-01-01T07:40:15.562Z,74.96
2018-01-01T07:40:56.154Z,75.81
2018-01-01T07:41:36.579Z,75.72
2018-01-01T07:42:17.208Z,77.09
2018-01-01T07:42:57.855Z,76.14
2018-01-01T07:43:38.988Z,74.8
2018-01-01T07:44:19.425Z,75.19
2018-01-01T07:45:00.267Z,74.9
2018-01-01T07:45:41.791Z,75.09
2018-01-01T07:46:22.179Z,75.19
2018-01-01T07:47:02.815Z,75.09
2018-01-01T07:47:43.330Z,74.62
2018-01-01T07:48:25.643Z,75.09
2018-01-01T07:49:06.139Z,74.33
2018-01-01T07:49:46.697Z,74.71
2018-01-01T07:50:27.136Z,74.9
2018-01-01T07:51:07.517Z,74.14
2018-01-01T07:51:48.014Z,74.14
2018-01-01T07:52:28.378Z,74.43
2018-01-01T07:53:09.362Z,74.14
2018-01-01T07:53:49.514Z,74.33
2018-01-01T07:54:30.328Z,74.14
2018-01-01T07:55:10.703Z,74.43
2018-01-01T07:55:51.741Z,74.14
2018-01-01T07:56:32.683Z,74.71
2018-01-01T07:57:13.647Z,74.14
2018-01-01T07:57:54.006Z,74.43
2018-01-01T07:58:34.441Z,74.24
2018-01-01T07:59:15.439Z,74.14
2018-01-01T07:59:55.859Z,74.04
2018-01-01T08:00:36.569Z,73.8
2018-01-01T08:01:17.320Z,73.1
2018-01-01T08:01:57.918Z,72.75
2018-01-01T08:02:38.552Z,73.13
2018-01-01T08:03:19.403Z,72.85
2018-01-01T08:04:00.029Z,73.03
2018-01-01T08:04:40.634Z,73.7
2018-01-01T08:05:21.312Z,72.75
2018-01-01T08:06:02.153Z,73.03
2018-01-01T08:06:42.628Z,73.32
2018-01-01T08:07:23.092Z,72.94
2018-01-01T08:08:03.902Z,73.51
2018-01-01T08:08:44.263Z,73.13
2018-01-01T08:09:24.920Z,73.22
2018-01-01T08:10:05.623Z,73.22
2018-01-01T08:10:46.123Z,72.94
2018-01-01T08:11:26.803Z,73.89
2018-01-01T08:12:07.977Z,74.27
2018-01-01T08:12:48.770Z,75.13
2018-01-01T08:13:29.505Z,75.04
2018-01-01T08:14:09.713Z,76.37
2018-01-01T08:14:50.346Z,75.99
2018-01-01T08:15:30.777Z,76.04
2018-01-01T08:16:11.106Z,76.52
2018-01-01T08:16:51.492Z,76.46
2018-01-01T08:17:32.135Z,76.94
2018-01-01T08:18:12.809Z,76.56
2018-01-01T08:18:53.258Z,75.99
2018-01-01T08:19:34.060Z,76.18
2018-01-01T08:20:15.099Z,76.18
2018-01-01T08:20:56.214Z,76.46
2018-01-01T08:21:36.777Z,76.65
2018-01-01T08:22:17.173Z,76.56
2018-01-01T08:22:57.562Z,77.13
2018-01-01T08:23:38.307Z,77.13
2018-01-01T08:24:19.448Z,77.51
2018-01-01T08:25:00.775Z,77.37
2018-01-01T08:25:41.251Z,78.14
2018-01-01T08:26:22.754Z,78.42
2018-01-01T08:27:03.054Z,78.42
2018-01-01T08:27:43.760Z,79.09
2018-01-01T08:28:24.174Z,79.19
2018-01-01T08:29:04.727Z,79.09
2018-01-01T08:29:46.154Z,79.19
2018-01-01T08:30:26.154Z,79.09
2018-01-01T08:31:06.563Z,79.75
2018-01-01T08:31:46.962Z,79.19
2018-01-01T08:32:28.136Z,79.38
2018-01-01T08:33:09.401Z,78.94
2018-01-01T08:33:49.806Z,78.52
2018-01-01T08:34:30.305Z,78.46
2018-01-01T08:35:11.282Z,78.37
2018-01-01T08:35:52.299Z,78.99
2018-01-01T08:36:32.825Z,79.19
2018-01-01T08:37:13.113Z,78.99
2018-01-01T08:37:53.532Z,78.99
2018-01-01T08:38:34.115Z,80.04
2018-01-01T08:39:14.983Z,80.13
2018-01-01T08:39:55.444Z,80.42
2018-01-01T08:40:36.686Z,80.23
2018-01-01T08:41:16.522Z,79.94
2018-01-01T08:41:58.558Z,80.33
2018-01-01T08:42:37.841Z,80.52
2018-01-01T08:43:19.113Z,80.23
2018-01-01T08:43:59.091Z,79.94
2018-01-01T08:44:40.227Z,80.61
2018-01-01T08:45:21.139Z,81.28
2018-01-01T08:46:02.350Z,80.8
2018-01-01T08:46:43.029Z,81.18
2018-01-01T08:47:24.189Z,81.47
2018-01-01T08:48:05.218Z,81.18
2018-01-01T08:48:46.506Z,80.8
2018-01-01T08:49:28.411Z,81.76
2018-01-01T08:50:09.661Z,81.71
2018-01-01T08:50:50.174Z,81.95
2018-01-01T08:51:31.142Z,82.51
2018-01-01T08:52:12.868Z,82.38
2018-01-01T08:52:53.095Z,82.9
2018-01-01T08:53:33.481Z,82.38
2018-01-01T08:54:13.895Z,82.57
2018-01-01T08:54:54.519Z,83.09
2018-01-01T08:55:34.828Z,82.9
2018-01-01T08:56:15.283Z,83.56
2018-01-01T08:56:56.027Z,82.99
2018-01-01T08:57:36.366Z,82.32
2018-01-01T08:58:21.494Z,82.14
2018-01-01T08:59:02.454Z,82.51
2018-01-01T08:59:43.016Z,82.42
2018-01-01T09:00:23.567Z,82.9
2018-01-01T09:01:04.345Z,83.56
2018-01-01T09:01:45.649Z,83.37
2018-01-01T09:02:26.049Z,83.65
2018-01-01T09:03:07.947Z,83.47
2018-01-01T09:03:48.875Z,83.75
2018-01-01T09:04:29.703Z,83.75
2018-01-01T09:05:11.051Z,83.75
2018-01-01T09:05:51.220Z,83.65
2018-01-01T09:06:32.555Z,83.75
2018-01-01T09:07:16.155Z,83.18
2018-01-01T09:07:58.207Z,83.37
2018-01-01T09:08:39.871Z,83.56
2018-01-01T09:09:20.269Z,82.9
2018-01-01T09:10:01.008Z,82.32
2018-01-01T09:10:42.094Z,82.28
2018-01-01T09:11:24.573Z,83.81
2018-01-01T09:12:05.836Z,82.95
2018-01-01T09:12:46.089Z,83.62
2018-01-01T09:13:27.254Z,82.95
2018-01-01T09:14:07.532Z,82.95
2018-01-01T09:14:48.752Z,82.28
2018-01-01T09:15:29.849Z,83.71
2018-01-01T09:16:11.176Z,83.81
2018-01-01T09:16:50.808Z,83.81
2018-01-01T09:17:31.666Z,84.66
2018-01-01T09:18:11.790Z,84.85
2018-01-01T09:18:52.157Z,84.47
2018-01-01T09:19:33.931Z,84.09
2018-01-01T09:20:14.265Z,84.76
2018-01-01T09:20:54.665Z,84
2018-01-01T09:21:35.175Z,84.38
2018-01-01T09:22:15.555Z,83.71
2018-01-01T09:22:56.336Z,83.71
2018-01-01T09:23:36.616Z,84.28
2018-01-01T09:24:17.091Z,83.75
2018-01-01T09:24:58.030Z,82.99
2018-01-01T09:25:38.391Z,82.23
2018-01-01T09:26:18.861Z,82.51
2018-01-01T09:26:59.188Z,81.79
2018-01-01T09:27:40.255Z,81.79
2018-01-01T09:28:20.681Z,81.03
2018-01-01T09:29:01.321Z,80.36
2018-01-01T09:29:41.491Z,78.22
2018-01-01T09:30:21.915Z,78.12
2018-01-01T09:31:02.458Z,77.55
2018-01-01T09:31:43.258Z,76.54
2018-01-01T09:32:23.572Z,75.49
2018-01-01T09:33:03.977Z,73.3
2018-01-01T09:33:44.920Z,73.62
2018-01-01T09:34:27.198Z,72.48
2018-01-01T09:35:08.194Z,72.96
2018-01-01T09:35:48.592Z,71.04
2018-01-01T09:36:29.969Z,71.43
2018-01-01T09:37:10.527Z,70.76
2018-01-01T09:37:51.038Z,70.7
2018-01-01T09:38:31.445Z,70.22
2018-01-01T09:39:11.940Z,69.84
2018-01-01T09:39:52.233Z,69.56
2018-01-01T09:40:32.626Z,69.08
2018-01-01T09:41:14.807Z,69.59
2018-01-01T09:41:55.228Z,67.87
2018-01-01T09:42:37.693Z,67.58
2018-01-01T09:43:18.415Z,66.92
2018-01-01T09:43:59.386Z,66.06
2018-01-01T09:44:40.084Z,65.87